Time;durP1;ratioP1;P1;durP2;ratioP2;P2;SDS_P1;SDS_P2;PMS_P1;PMS_P2;Temp;Humidity;BMP_temperature;BMP_pressure;BME280_temperature;BME280_humidity;BME280_pressure;Samples;Min_cycle;Max_cycle;Signal;HPM_P1;HPM_P2
2022/01/27 00:01:39;;;;;;;;;;;16.80;99.90;;;;;;4979060;28;1972;-43
2022/01/27 00:06:50;;;;;;;;;;;16.80;99.90;;;;;;4994306;28;818;-43
2022/01/27 00:11:47;;;;;;;;;;;16.70;99.90;;;;;;4998262;28;1002;-43
2022/01/27 00:14:17;;;;;;;;;;;16.70;99.90;;;;;;4998300;28;748;-43
2022/01/27 00:16:54;;;;;;;;;;;16.60;99.90;;;;;;4998343;28;819;-43
2022/01/27 00:19:20;;;;;;;;;;;16.60;99.90;;;;;;4998298;28;769;-43
2022/01/27 00:21:46;;;;;;;;;;;16.50;99.90;;;;;;4998030;28;1911;-43
2022/01/27 00:24:15;;;;;;;;;;;16.50;99.90;;;;;;4998024;28;869;-43
2022/01/27 00:26:42;;;;;;;;;;;16.50;99.90;;;;;;4998120;28;767;-43
2022/01/27 00:29:08;;;;;;;;;;;16.50;99.90;;;;;;4997984;28;767;-43
2022/01/27 00:31:36;;;;;;;;;;;16.40;99.90;;;;;;4997897;28;1947;-43
2022/01/27 00:34:04;;;;;;;;;;;16.40;99.90;;;;;;4997897;28;945;-43
2022/01/27 00:36:33;;;;;;;;;;;16.30;99.90;;;;;;4964066;28;933;-43
2022/01/27 00:38:59;;;;;;;;;;;16.30;99.90;;;;;;4948027;28;1169;-43
2022/01/27 00:41:25;;;;;;;;;;;16.30;99.90;;;;;;4997697;28;1906;-43
2022/01/27 00:43:51;;;;;;;;;;;16.30;99.90;;;;;;4997849;28;854;-43
2022/01/27 00:46:18;;;;;;;;;;;16.20;99.90;;;;;;4997765;28;949;-43
2022/01/27 00:48:46;;;;;;;;;;;16.20;99.90;;;;;;4979932;28;1002;-43
2022/01/27 00:51:20;;;;;;;;;;;16.20;99.90;;;;;;4997430;28;754;-43
2022/01/27 00:53:53;;;;;;;;;;;16.10;99.90;;;;;;4997617;28;814;-43
2022/01/27 00:56:26;;;;;;;;;;;16.10;99.90;;;;;;4997719;28;1078;-43
2022/01/27 00:59:18;;;;;;;;;;;16.10;99.90;;;;;;4997628;28;924;-43
2022/01/27 01:01:51;;;;;;;;;;;16.10;99.90;;;;;;4984127;28;1970;-43
2022/01/27 01:04:24;;;;;;;;;;;16.00;99.90;;;;;;4977824;28;1339;-43
2022/01/27 01:06:51;;;;;;;;;;;16.00;99.90;;;;;;4997053;28;774;-43
2022/01/27 01:14:41;;;;;;;;;;;15.90;99.90;;;;;;4997168;28;941;-52
2022/01/27 01:32:54;;;;;;;;;;;15.70;99.90;;;;;;4996847;28;878;-52
2022/01/27 01:35:39;;;;;;;;;;;15.70;99.90;;;;;;4998142;28;1317;-52
2022/01/27 01:38:17;;;;;;;;;;;15.70;99.90;;;;;;4995946;28;1373;-52
2022/01/27 01:40:48;;;;;;;;;;;15.70;99.90;;;;;;4996658;28;1910;-52
2022/01/27 01:43:15;;;;;;;;;;;15.60;99.90;;;;;;4995273;28;1374;-43
2022/01/27 01:45:42;;;;;;;;;;;15.60;99.90;;;;;;4997009;28;815;-43
2022/01/27 01:48:08;;;;;;;;;;;15.60;99.90;;;;;;4996901;28;877;-43
2022/01/27 01:50:34;;;;;;;;;;;15.60;99.90;;;;;;4996555;28;767;-43
2022/01/27 01:53:00;;;;;;;;;;;15.50;99.90;;;;;;4996579;28;758;-43
2022/01/27 01:55:26;;;;;;;;;;;15.50;99.90;;;;;;4996364;28;823;-43
2022/01/27 01:57:52;;;;;;;;;;;15.50;99.90;;;;;;4996285;28;1003;-43
2022/01/27 02:00:18;;;;;;;;;;;15.50;99.90;;;;;;4996597;28;794;-43
2022/01/27 02:02:45;;;;;;;;;;;15.50;99.90;;;;;;4996406;28;1898;-43
2022/01/27 02:05:11;;;;;;;;;;;15.40;99.90;;;;;;4996403;28;1122;-53
2022/01/27 02:07:58;;;;;;;;;;;15.40;99.90;;;;;;4962221;28;902;-53
2022/01/27 02:10:39;;;;;;;;;;;15.40;99.90;;;;;;4996559;28;853;-53
2022/01/27 02:18:43;;;;;;;;;;;15.30;99.90;;;;;;4996401;28;782;-53
2022/01/27 02:21:09;;;;;;;;;;;15.30;99.90;;;;;;4996390;28;1910;-53
2022/01/27 02:23:35;;;;;;;;;;;15.30;99.90;;;;;;4996194;28;849;-53
2022/01/27 02:26:01;;;;;;;;;;;15.30;99.90;;;;;;4996522;28;790;-52
2022/01/27 02:28:27;;;;;;;;;;;15.20;99.90;;;;;;4999815;28;893;-52
2022/01/27 02:30:52;;;;;;;;;;;15.20;99.90;;;;;;5000359;28;829;-43
2022/01/27 02:33:28;;;;;;;;;;;15.20;99.90;;;;;;4999693;28;980;-43
2022/01/27 02:35:54;;;;;;;;;;;15.20;99.90;;;;;;4999358;28;828;-43
2022/01/27 02:38:20;;;;;;;;;;;15.20;99.90;;;;;;5000020;28;833;-43
2022/01/27 02:40:54;;;;;;;;;;;15.10;99.90;;;;;;4982823;28;1957;-43
2022/01/27 02:43:20;;;;;;;;;;;15.10;99.90;;;;;;4999760;28;915;-43
2022/01/27 02:45:54;;;;;;;;;;;15.10;99.90;;;;;;4999956;28;853;-43
2022/01/27 02:48:20;;;;;;;;;;;15.10;99.90;;;;;;4999942;28;802;-43
2022/01/27 02:50:46;;;;;;;;;;;15.10;99.90;;;;;;4999714;28;1058;-43
2022/01/27 02:53:13;;;;;;;;;;;15.10;99.90;;;;;;4981624;28;1067;-43
2022/01/27 02:55:39;;;;;;;;;;;15.00;99.90;;;;;;5000003;28;805;-43
2022/01/27 02:58:05;;;;;;;;;;;15.00;99.90;;;;;;4999641;28;913;-43
2022/01/27 03:00:31;;;;;;;;;;;15.00;99.90;;;;;;4999888;28;838;-43
2022/01/27 03:02:58;;;;;;;;;;;15.00;99.90;;;;;;4999250;28;1981;-43
2022/01/27 03:05:24;;;;;;;;;;;15.00;99.90;;;;;;4998256;28;1311;-43
2022/01/27 03:07:50;;;;;;;;;;;15.00;99.90;;;;;;4999480;28;771;-43
2022/01/27 03:10:17;;;;;;;;;;;14.90;99.90;;;;;;4999123;28;945;-43
2022/01/27 03:12:47;;;;;;;;;;;14.90;99.90;;;;;;4999491;28;779;-43
2022/01/27 03:15:13;;;;;;;;;;;14.90;99.90;;;;;;4999562;28;834;-43
2022/01/27 03:17:39;;;;;;;;;;;14.90;99.90;;;;;;4982285;28;832;-43
2022/01/27 03:20:06;;;;;;;;;;;14.80;99.90;;;;;;4999981;28;908;-54
2022/01/27 03:22:32;;;;;;;;;;;14.80;99.90;;;;;;5157016;22;2439;-54
2022/01/27 03:24:58;;;;;;;;;;;14.80;99.90;;;;;;5041605;28;765;-54
2022/01/27 03:27:26;;;;;;;;;;;14.80;99.90;;;;;;5039437;28;882;-54
2022/01/27 03:29:52;;;;;;;;;;;14.80;99.90;;;;;;5039624;28;786;-55
2022/01/27 03:32:18;;;;;;;;;;;14.80;99.90;;;;;;5042911;28;767;-45
2022/01/27 03:34:45;;;;;;;;;;;14.70;99.90;;;;;;5048317;28;1166;-50
2022/01/27 03:37:11;;;;;;;;;;;14.70;99.90;;;;;;5044092;28;1687;-44
2022/01/27 03:39:38;;;;;;;;;;;14.70;99.90;;;;;;5050181;28;1298;-54
2022/01/27 03:42:05;;;;;;;;;;;14.70;99.90;;;;;;5057361;28;1906;-53
2022/01/27 03:44:31;;;;;;;;;;;14.70;99.90;;;;;;5057613;28;894;-54
2022/01/27 03:46:58;;;;;;;;;;;14.70;99.90;;;;;;5057359;28;954;-53
2022/01/27 03:49:24;;;;;;;;;;;14.70;99.90;;;;;;5057481;28;796;-54
2022/01/27 03:51:50;;;;;;;;;;;14.60;99.90;;;;;;5057594;28;875;-53
2022/01/27 03:54:16;;;;;;;;;;;14.60;99.90;;;;;;5039148;28;935;-54
2022/01/27 03:56:43;;;;;;;;;;;14.60;99.90;;;;;;5039251;28;873;-53
2022/01/27 03:59:09;;;;;;;;;;;14.60;99.90;;;;;;5038912;28;857;-53
2022/01/27 04:01:36;;;;;;;;;;;14.50;99.90;;;;;;5038599;28;1898;-54
2022/01/27 04:04:02;;;;;;;;;;;14.50;99.90;;;;;;5037583;28;1006;-54
2022/01/27 04:06:35;;;;;;;;;;;14.50;99.90;;;;;;5037106;28;1031;-54
2022/01/27 04:09:03;;;;;;;;;;;14.50;99.90;;;;;;5038154;28;973;-54
2022/01/27 04:11:31;;;;;;;;;;;14.50;99.90;;;;;;5043522;28;941;-53
2022/01/27 04:13:57;;;;;;;;;;;14.40;99.90;;;;;;5056340;28;1198;-53
2022/01/27 04:16:23;;;;;;;;;;;14.50;99.90;;;;;;5056914;28;881;-53
2022/01/27 04:18:49;;;;;;;;;;;14.50;99.90;;;;;;5056687;28;921;-53
2022/01/27 04:21:15;;;;;;;;;;;14.40;99.90;;;;;;5056500;28;1910;-54
2022/01/27 04:23:42;;;;;;;;;;;14.40;99.90;;;;;;5042757;28;1029;-53
2022/01/27 04:26:09;;;;;;;;;;;14.40;99.90;;;;;;5038136;28;1010;-53
2022/01/27 04:28:37;;;;;;;;;;;14.40;99.90;;;;;;5038490;28;873;-53
2022/01/27 04:31:07;;;;;;;;;;;14.40;99.90;;;;;;5038320;28;1021;-53
2022/01/27 04:33:35;;;;;;;;;;;14.30;99.90;;;;;;5038111;28;809;-53
2022/01/27 04:36:06;;;;;;;;;;;14.30;99.90;;;;;;5038122;28;781;-53
2022/01/27 04:38:49;;;;;;;;;;;14.30;99.90;;;;;;5037522;28;992;-53
2022/01/27 04:41:31;;;;;;;;;;;14.30;99.90;;;;;;5037291;28;1910;-54
2022/01/27 04:44:05;;;;;;;;;;;14.30;99.90;;;;;;5036953;28;923;-53
2022/01/27 04:46:56;;;;;;;;;;;14.30;99.90;;;;;;5038170;28;1040;-54
2022/01/27 04:49:23;;;;;;;;;;;14.30;99.90;;;;;;5037360;28;859;-54
2022/01/27 04:51:49;;;;;;;;;;;14.20;99.90;;;;;;5036465;28;977;-53
2022/01/27 04:54:22;;;;;;;;;;;14.20;99.90;;;;;;5020569;28;987;-54
2022/01/27 04:56:48;;;;;;;;;;;14.20;99.90;;;;;;5039744;28;1194;-54
2022/01/27 04:59:23;;;;;;;;;;;14.20;99.90;;;;;;5056203;28;821;-54
2022/01/27 05:02:03;;;;;;;;;;;14.20;99.90;;;;;;5056082;28;1961;-54
2022/01/27 05:04:33;;;;;;;;;;;14.20;99.90;;;;;;5036217;28;1009;-54
2022/01/27 05:06:59;;;;;;;;;;;14.20;99.90;;;;;;5037696;28;877;-54
2022/01/27 05:09:26;;;;;;;;;;;14.10;99.90;;;;;;5020151;28;990;-54
2022/01/27 05:11:56;;;;;;;;;;;14.10;99.90;;;;;;5037460;28;810;-53
2022/01/27 05:14:24;;;;;;;;;;;14.10;99.90;;;;;;5037923;28;817;-53
2022/01/27 05:16:56;;;;;;;;;;;14.10;99.90;;;;;;5055813;28;893;-53
2022/01/27 05:19:22;;;;;;;;;;;14.10;99.90;;;;;;5055402;28;824;-53
2022/01/27 05:21:48;;;;;;;;;;;14.10;99.90;;;;;;5055466;28;1897;-53
2022/01/27 05:24:14;;;;;;;;;;;14.10;99.90;;;;;;5069798;28;1336;-53
2022/01/27 05:26:40;;;;;;;;;;;14.00;99.90;;;;;;5055438;28;892;-54
2022/01/27 05:29:07;;;;;;;;;;;14.00;99.90;;;;;;5055519;28;844;-54
2022/01/27 05:31:33;;;;;;;;;;;14.00;99.90;;;;;;5055944;28;812;-54
2022/01/27 05:34:00;;;;;;;;;;;14.00;99.90;;;;;;5054285;28;873;-54
2022/01/27 05:36:26;;;;;;;;;;;14.00;99.90;;;;;;5036090;28;1218;-53
2022/01/27 05:38:52;;;;;;;;;;;14.00;99.90;;;;;;5035892;28;872;-53
2022/01/27 05:41:18;;;;;;;;;;;14.00;99.90;;;;;;5033469;28;1914;-53
2022/01/27 05:43:44;;;;;;;;;;;14.00;99.90;;;;;;5036961;28;824;-53
2022/01/27 05:46:10;;;;;;;;;;;14.00;99.90;;;;;;5037240;28;803;-44
2022/01/27 05:48:36;;;;;;;;;;;14.00;99.90;;;;;;5037091;28;883;-44
2022/01/27 05:51:03;;;;;;;;;;;13.90;99.90;;;;;;5036737;28;876;-44
2022/01/27 05:53:32;;;;;;;;;;;13.90;99.90;;;;;;5036663;28;853;-44
2022/01/27 05:55:58;;;;;;;;;;;13.90;99.90;;;;;;5036886;28;936;-44
2022/01/27 05:58:25;;;;;;;;;;;13.90;99.90;;;;;;5037059;28;857;-44
2022/01/27 06:00:51;;;;;;;;;;;13.90;99.90;;;;;;5036635;28;1031;-44
2022/01/27 06:03:17;;;;;;;;;;;13.90;99.90;;;;;;5036609;28;1898;-44
2022/01/27 06:05:44;;;;;;;;;;;13.90;99.90;;;;;;5036464;28;1021;-44
2022/01/27 06:08:09;;;;;;;;;;;13.90;99.90;;;;;;5039582;28;1009;-44
2022/01/27 06:10:35;;;;;;;;;;;13.90;99.90;;;;;;5070578;28;916;-44
2022/01/27 06:13:01;;;;;;;;;;;13.90;99.90;;;;;;5054943;28;828;-44
2022/01/27 06:15:28;;;;;;;;;;;14.00;99.90;;;;;;5055285;28;954;-44
2022/01/27 06:17:54;;;;;;;;;;;14.00;99.90;;;;;;5055397;28;884;-44
2022/01/27 06:20:20;;;;;;;;;;;14.00;99.90;;;;;;5054809;28;891;-44
2022/01/27 06:22:47;;;;;;;;;;;14.00;99.90;;;;;;5048238;28;1894;-44
2022/01/27 06:25:14;;;;;;;;;;;14.10;99.90;;;;;;5031987;28;952;-44
2022/01/27 06:27:39;;;;;;;;;;;14.10;99.90;;;;;;5054742;28;768;-44
2022/01/27 06:30:06;;;;;;;;;;;14.20;99.90;;;;;;5054667;28;869;-44
2022/01/27 06:32:33;;;;;;;;;;;14.20;99.90;;;;;;5053417;28;914;-44
2022/01/27 06:34:59;;;;;;;;;;;14.20;99.90;;;;;;5046523;28;765;-44
2022/01/27 06:37:25;;;;;;;;;;;14.30;99.90;;;;;;5054591;28;857;-44
2022/01/27 06:39:52;;;;;;;;;;;14.40;99.90;;;;;;5054706;28;760;-44
2022/01/27 06:42:18;;;;;;;;;;;14.40;99.90;;;;;;5042289;28;1910;-44
2022/01/27 06:44:44;;;;;;;;;;;14.50;99.90;;;;;;5050300;28;770;-44
2022/01/27 06:47:10;;;;;;;;;;;14.50;99.90;;;;;;5036243;28;925;-44
2022/01/27 06:49:36;;;;;;;;;;;14.60;99.90;;;;;;5030209;28;1646;-44
2022/01/27 06:52:03;;;;;;;;;;;14.60;99.90;;;;;;5053246;28;876;-53
2022/01/27 06:54:29;;;;;;;;;;;14.70;99.90;;;;;;5035441;28;959;-53
2022/01/27 06:56:57;;;;;;;;;;;14.70;99.90;;;;;;5036272;28;845;-54
2022/01/27 06:59:23;;;;;;;;;;;14.80;99.90;;;;;;5035251;28;873;-54
2022/01/27 07:01:49;;;;;;;;;;;14.80;99.90;;;;;;5035436;28;1898;-54
2022/01/27 07:04:15;;;;;;;;;;;14.90;99.90;;;;;;5035951;28;940;-55
2022/01/27 07:06:41;;;;;;;;;;;14.90;99.90;;;;;;5035763;28;975;-54
2022/01/27 07:09:07;;;;;;;;;;;14.90;99.90;;;;;;5035705;28;1172;-55
2022/01/27 07:11:33;;;;;;;;;;;14.90;99.90;;;;;;5035726;28;859;-54
2022/01/27 07:13:59;;;;;;;;;;;15.00;99.90;;;;;;5036866;28;884;-54
2022/01/27 07:16:25;;;;;;;;;;;15.00;99.90;;;;;;5049045;28;889;-54
2022/01/27 07:18:52;;;;;;;;;;;15.00;99.90;;;;;;5057909;28;750;-54
2022/01/27 07:21:19;;;;;;;;;;;15.00;99.90;;;;;;5057828;28;901;-54
2022/01/27 07:23:46;;;;;;;;;;;15.00;99.90;;;;;;5043652;28;1906;-54
2022/01/27 07:26:13;;;;;;;;;;;15.00;99.90;;;;;;5039672;28;1228;-54
2022/01/27 07:28:40;;;;;;;;;;;15.10;99.90;;;;;;5039565;28;969;-53
2022/01/27 07:31:06;;;;;;;;;;;15.10;99.90;;;;;;5044538;28;925;-54
2022/01/27 07:33:32;;;;;;;;;;;15.10;99.90;;;;;;5057598;28;1711;-55
2022/01/27 07:35:58;;;;;;;;;;;15.10;99.90;;;;;;5039719;28;1025;-54
2022/01/27 07:38:26;;;;;;;;;;;15.20;99.90;;;;;;5057741;28;882;-54
2022/01/27 07:40:52;;;;;;;;;;;15.20;99.90;;;;;;5051229;28;1021;-54
2022/01/27 07:43:18;;;;;;;;;;;15.20;99.90;;;;;;5045286;28;1910;-54
2022/01/27 07:45:44;;;;;;;;;;;15.30;99.90;;;;;;5024036;28;1194;-54
2022/01/27 07:48:10;;;;;;;;;;;15.30;99.90;;;;;;5039048;28;1103;-53
2022/01/27 07:50:37;;;;;;;;;;;15.30;99.90;;;;;;5040319;28;1361;-53
2022/01/27 07:53:03;;;;;;;;;;;15.30;99.90;;;;;;5039297;28;1156;-53
2022/01/27 07:55:29;;;;;;;;;;;15.30;99.90;;;;;;5042804;28;1186;-54
2022/01/27 08:00:29;;;;;;;;;;;15.30;99.90;;;;;;5057803;22;2035;-44
2022/01/27 08:02:55;;;;;;;;;;;15.40;99.90;;;;;;5056691;28;1882;-44
2022/01/27 08:05:22;;;;;;;;;;;15.40;99.90;;;;;;5049190;28;973;-44
2022/01/27 08:07:47;;;;;;;;;;;15.40;99.90;;;;;;5055943;28;1573;-44
2022/01/27 08:10:14;;;;;;;;;;;15.40;99.90;;;;;;5039806;28;1951;-44
2022/01/27 08:12:41;;;;;;;;;;;15.40;99.90;;;;;;5057533;28;1576;-44
2022/01/27 08:15:08;;;;;;;;;;;15.50;99.90;;;;;;5056834;28;1025;-44
2022/01/27 08:17:34;;;;;;;;;;;15.60;99.90;;;;;;5057226;28;1644;-44
2022/01/27 08:20:00;;;;;;;;;;;15.60;99.90;;;;;;5040003;28;978;-54
2022/01/27 08:22:26;;;;;;;;;;;15.60;99.90;;;;;;5057096;28;1957;-44
2022/01/27 08:24:52;;;;;;;;;;;15.60;99.90;;;;;;5057132;28;1580;-44
2022/01/27 08:27:24;;;;;;;;;;;15.60;99.90;;;;;;5039037;28;937;-44
2022/01/27 08:29:55;;;;;;;;;;;15.60;99.90;;;;;;5056894;28;807;-43
2022/01/27 08:32:30;;;;;;;;;;;15.60;99.90;;;;;;5057617;28;772;-44
2022/01/27 08:34:56;;;;;;;;;;;15.60;99.90;;;;;;5022400;28;1042;-44
2022/01/27 08:37:22;;;;;;;;;;;15.60;99.90;;;;;;5057216;28;757;-44
2022/01/27 08:39:48;;;;;;;;;;;15.70;99.90;;;;;;5057105;28;1041;-44
2022/01/27 08:42:15;;;;;;;;;;;15.70;99.90;;;;;;5038903;28;1902;-44
2022/01/27 08:44:41;;;;;;;;;;;15.70;99.90;;;;;;5055705;28;1255;-44
2022/01/27 08:47:11;;;;;;;;;;;15.70;99.90;;;;;;5056230;28;1468;-44
2022/01/27 08:49:37;;;;;;;;;;;15.70;99.90;;;;;;5055822;28;933;-44
2022/01/27 08:52:04;;;;;;;;;;;15.80;99.90;;;;;;5056117;28;1170;-44
2022/01/27 08:54:31;;;;;;;;;;;15.80;99.90;;;;;;5055267;28;1278;-44
2022/01/27 08:56:57;;;;;;;;;;;15.90;99.90;;;;;;5016258;28;1276;-53
2022/01/27 08:59:23;;;;;;;;;;;16.00;99.90;;;;;;5054716;28;1409;-54
2022/01/27 09:01:49;;;;;;;;;;;16.00;99.90;;;;;;5052325;28;1964;-54
2022/01/27 09:04:15;;;;;;;;;;;16.00;99.90;;;;;;5055251;28;1450;-54
2022/01/27 09:06:41;;;;;;;;;;;16.00;99.90;;;;;;5062518;28;1357;-53
2022/01/27 09:09:09;;;;;;;;;;;16.00;99.90;;;;;;5045711;28;1382;-53
2022/01/27 09:11:36;;;;;;;;;;;16.00;99.90;;;;;;5030071;28;1300;-54
2022/01/27 09:14:03;;;;;;;;;;;15.90;99.90;;;;;;5063675;28;1363;-54
2022/01/27 09:16:31;;;;;;;;;;;15.90;99.90;;;;;;5064348;28;1491;-53
2022/01/27 09:18:58;;;;;;;;;;;15.90;99.90;;;;;;5063282;28;1332;-44
2022/01/27 09:21:28;;;;;;;;;;;15.90;99.90;;;;;;5063797;28;1426;-44
2022/01/27 09:23:54;;;;;;;;;;;15.90;99.90;;;;;;5064840;28;1967;-44
2022/01/27 09:26:51;;;;;;;;;;;15.90;99.90;;;;;;5062674;28;1366;-44
2022/01/27 09:29:08;;;;;;;;;;;15.90;99.90;;;;;;5057815;28;1546;-44
2022/01/27 09:31:36;;;;;;;;;;;15.90;99.90;;;;;;5052287;28;1087;-44
2022/01/27 09:34:04;;;;;;;;;;;16.00;99.90;;;;;;5037474;28;1101;-54
2022/01/27 09:36:30;;;;;;;;;;;16.10;99.90;;;;;;5055571;28;797;-54
2022/01/27 09:38:56;;;;;;;;;;;16.20;99.90;;;;;;5055550;28;1012;-44
2022/01/27 09:41:24;;;;;;;;;;;16.20;99.90;;;;;;5054382;28;1305;-44
2022/01/27 09:43:53;;;;;;;;;;;16.30;99.90;;;;;;5054137;28;1942;-43
2022/01/27 09:46:21;;;;;;;;;;;16.40;99.90;;;;;;5055893;28;1026;-44
2022/01/27 09:48:48;;;;;;;;;;;16.40;99.90;;;;;;5055861;28;832;-43
2022/01/27 09:51:38;;;;;;;;;;;16.50;99.90;;;;;;5054573;28;1040;-43
2022/01/27 09:54:05;;;;;;;;;;;16.50;99.90;;;;;;5037667;28;1792;-43
2022/01/27 09:56:31;;;;;;;;;;;16.60;99.90;;;;;;5016266;28;1195;-43
2022/01/27 09:58:57;;;;;;;;;;;16.70;99.90;;;;;;5051779;28;1317;-43
2022/01/27 10:01:27;;;;;;;;;;;16.70;99.90;;;;;;5053146;28;1140;-43
2022/01/27 10:03:57;;;;;;;;;;;16.80;99.90;;;;;;5054846;28;1967;-53
2022/01/27 10:06:29;;;;;;;;;;;16.80;99.90;;;;;;5052752;28;1060;-52
2022/01/27 10:09:16;;;;;;;;;;;16.90;99.90;;;;;;5054990;28;1161;-53
2022/01/27 10:11:44;;;;;;;;;;;17.00;99.90;;;;;;5054694;28;1398;-52
2022/01/27 10:14:35;;;;;;;;;;;17.10;99.90;;;;;;5054844;28;1242;-53
2022/01/27 10:17:01;;;;;;;;;;;17.10;99.90;;;;;;5054466;28;1449;-52
2022/01/27 10:19:28;;;;;;;;;;;17.20;99.90;;;;;;5053542;28;1201;-53
2022/01/27 10:22:01;;;;;;;;;;;17.20;99.90;;;;;;5051828;28;1977;-53
2022/01/27 10:24:29;;;;;;;;;;;17.30;99.90;;;;;;5054183;28;1103;-53
2022/01/27 10:27:21;;;;;;;;;;;17.30;99.90;;;;;;5052841;28;1154;-53
2022/01/27 10:32:40;;;;;;;;;;;17.40;99.90;;;;;;5050260;28;1207;-53
2022/01/27 10:35:07;;;;;;;;;;;17.40;99.90;;;;;;5054020;28;911;-53
2022/01/27 10:37:51;;;;;;;;;;;17.40;99.90;;;;;;5054703;28;1362;-53
2022/01/27 10:40:37;;;;;;;;;;;17.40;99.90;;;;;;5054945;28;1053;-53
2022/01/27 10:43:14;;;;;;;;;;;17.40;99.90;;;;;;5055304;28;1965;-53
2022/01/27 10:46:00;;;;;;;;;;;17.40;99.90;;;;;;5055049;28;809;-52
2022/01/27 10:48:31;;;;;;;;;;;17.30;99.90;;;;;;5052735;28;1237;-52
2022/01/27 10:51:18;;;;;;;;;;;17.40;99.90;;;;;;5058723;28;1376;-52
2022/01/27 10:53:47;;;;;;;;;;;17.40;99.90;;;;;;5055493;28;1463;-52
2022/01/27 10:56:21;;;;;;;;;;;17.50;99.90;;;;;;5057424;28;1075;-52
2022/01/27 10:58:49;;;;;;;;;;;17.50;99.90;;;;;;5057791;28;1185;-53
2022/01/27 11:01:25;;;;;;;;;;;17.50;99.90;;;;;;5058746;28;1007;-53
2022/01/27 11:03:52;;;;;;;;;;;17.60;99.90;;;;;;5058237;28;1909;-52
2022/01/27 11:06:23;;;;;;;;;;;17.60;99.90;;;;;;5058668;28;1297;-53
2022/01/27 11:08:49;;;;;;;;;;;17.60;99.90;;;;;;5058885;28;838;-53
2022/01/27 11:11:16;;;;;;;;;;;17.60;99.90;;;;;;5058160;28;886;-53
2022/01/27 11:13:44;;;;;;;;;;;17.50;99.90;;;;;;5041016;28;1559;-52
2022/01/27 11:16:14;;;;;;;;;;;17.40;99.90;;;;;;5058050;28;1608;-52
2022/01/27 11:18:45;;;;;;;;;;;17.40;99.90;;;;;;5058682;28;821;-53
2022/01/27 11:21:28;;;;;;;;;;;17.40;99.90;;;;;;5056655;28;1060;-52
2022/01/27 11:24:05;;;;;;;;;;;17.50;99.90;;;;;;5058195;28;1972;-52
2022/01/27 11:26:32;;;;;;;;;;;17.60;99.90;;;;;;5054932;28;1088;-52
2022/01/27 11:28:59;;;;;;;;;;;17.60;99.90;;;;;;5055204;28;1052;-52
2022/01/27 11:31:33;;;;;;;;;;;17.70;99.90;;;;;;5058544;28;902;-52
2022/01/27 11:34:00;;;;;;;;;;;17.70;99.90;;;;;;5058639;28;836;-53
2022/01/27 11:36:27;;;;;;;;;;;17.70;99.90;;;;;;5058274;28;852;-53
2022/01/27 11:38:52;;;;;;;;;;;17.70;99.90;;;;;;5057842;28;893;-53
2022/01/27 11:41:33;;;;;;;;;;;17.70;99.90;;;;;;5052538;28;1041;-53
2022/01/27 11:44:19;;;;;;;;;;;17.70;99.90;;;;;;5055940;28;1906;-53
2022/01/27 11:47:04;;;;;;;;;;;17.80;99.90;;;;;;5057618;28;1033;-53
2022/01/27 11:49:56;;;;;;;;;;;17.80;99.90;;;;;;5045163;28;1251;-52
2022/01/27 11:52:31;;;;;;;;;;;17.80;99.90;;;;;;5054300;28;1035;-52
2022/01/27 11:55:17;;;;;;;;;;;17.80;99.90;;;;;;5054705;28;1274;-52
2022/01/27 11:57:45;;;;;;;;;;;17.90;99.90;;;;;;5055307;28;1222;-53
2022/01/27 12:00:16;;;;;;;;;;;17.90;99.90;;;;;;5050453;28;1484;-52
2022/01/27 12:03:00;;;;;;;;;;;17.90;99.90;;;;;;5056468;28;1965;-55
2022/01/27 12:05:27;;;;;;;;;;;17.90;99.90;;;;;;5054206;28;1223;-53
2022/01/27 12:08:08;;;;;;;;;;;17.90;99.90;;;;;;5056727;28;1419;-42
2022/01/27 12:10:41;;;;;;;;;;;17.90;99.90;;;;;;5056919;28;946;-52
2022/01/27 12:13:33;;;;;;;;;;;18.00;99.90;;;;;;5043378;28;1029;-53
2022/01/27 12:16:22;;;;;;;;;;;18.00;99.90;;;;;;5054146;28;1445;-53
2022/01/27 12:19:02;;;;;;;;;;;18.00;99.90;;;;;;5055237;28;1005;-53
2022/01/27 12:21:39;;;;;;;;;;;18.00;99.90;;;;;;5056432;28;1013;-52
2022/01/27 12:26:45;;;;;;;;;;;18.00;99.90;;;;;;5056666;28;954;-52
2022/01/27 12:29:11;;;;;;;;;;;18.10;99.90;;;;;;5056019;28;950;-52
2022/01/27 12:31:40;;;;;;;;;;;18.10;99.90;;;;;;5052839;28;1131;-52
2022/01/27 12:34:06;;;;;;;;;;;18.10;99.90;;;;;;5056634;28;950;-53
2022/01/27 12:36:32;;;;;;;;;;;18.10;99.90;;;;;;5056538;28;994;-53
2022/01/27 12:38:58;;;;;;;;;;;18.00;99.90;;;;;;5056327;28;1013;-52
2022/01/27 12:41:24;;;;;;;;;;;18.00;99.90;;;;;;5055918;28;1120;-53
2022/01/27 12:43:51;;;;;;;;;;;18.00;99.90;;;;;;5056357;28;1899;-52
2022/01/27 12:46:19;;;;;;;;;;;18.00;99.90;;;;;;5054722;28;1109;-52
2022/01/27 12:48:50;;;;;;;;;;;18.00;99.90;;;;;;5054690;28;1159;-53
2022/01/27 12:51:24;;;;;;;;;;;18.00;99.90;;;;;;5056071;28;970;-52
2022/01/27 12:54:02;;;;;;;;;;;18.00;99.90;;;;;;5053843;28;967;-52
2022/01/27 12:56:28;;;;;;;;;;;18.10;99.90;;;;;;5053684;28;1187;-53
2022/01/27 12:58:55;;;;;;;;;;;18.10;99.90;;;;;;5053495;28;1187;-52
2022/01/27 13:01:21;;;;;;;;;;;18.10;99.90;;;;;;5055283;28;1087;-53
2022/01/27 13:04:00;;;;;;;;;;;18.10;99.90;;;;;;5055052;28;1902;-52
2022/01/27 13:06:30;;;;;;;;;;;18.10;99.90;;;;;;5055611;28;1021;-53
2022/01/27 13:09:13;;;;;;;;;;;18.20;99.90;;;;;;5052925;28;1059;-53
2022/01/27 13:11:41;;;;;;;;;;;18.20;99.90;;;;;;5053965;28;1101;-53
2022/01/27 13:14:08;;;;;;;;;;;18.10;99.90;;;;;;5055430;28;1026;-53
2022/01/27 13:16:42;;;;;;;;;;;18.10;99.90;;;;;;5052315;28;1472;-43
2022/01/27 13:19:21;;;;;;;;;;;18.00;99.90;;;;;;5055614;28;986;-43
2022/01/27 13:21:58;;;;;;;;;;;17.90;99.90;;;;;;5053975;28;1438;-43
2022/01/27 13:24:27;;;;;;;;;;;17.90;99.90;;;;;;5055034;28;1918;-43
2022/01/27 13:27:06;;;;;;;;;;;17.90;99.90;;;;;;5055779;28;1002;-43
2022/01/27 13:29:38;;;;;;;;;;;17.80;99.90;;;;;;5054295;28;1073;-43
2022/01/27 13:32:07;;;;;;;;;;;17.80;99.90;;;;;;5053304;28;923;-43
2022/01/27 13:34:34;;;;;;;;;;;17.80;99.90;;;;;;5054621;28;1021;-43
2022/01/27 13:37:02;;;;;;;;;;;17.80;99.90;;;;;;5055498;28;942;-53
2022/01/27 13:42:10;;;;;;;;;;;17.80;99.90;;;;;;5053614;28;946;-52
2022/01/27 13:44:50;;;;;;;;;;;17.70;99.90;;;;;;5055299;28;1902;-52
2022/01/27 13:47:22;;;;;;;;;;;17.70;99.90;;;;;;5059066;28;950;-53
2022/01/27 13:49:51;;;;;;;;;;;17.70;99.90;;;;;;5037142;28;955;-53
2022/01/27 13:52:18;;;;;;;;;;;17.70;99.90;;;;;;5055239;28;967;-52
2022/01/27 13:54:45;;;;;;;;;;;17.70;99.90;;;;;;5004148;28;975;-52
2022/01/27 13:57:11;;;;;;;;;;;17.70;99.90;;;;;;5055313;28;923;-52
2022/01/27 13:59:40;;;;;;;;;;;17.70;99.90;;;;;;5053767;28;1373;-52
2022/01/27 14:02:14;;;;;;;;;;;17.70;99.90;;;;;;5055189;28;931;-52
2022/01/27 14:04:44;;;;;;;;;;;17.70;99.90;;;;;;5054834;28;1975;-53
2022/01/27 14:07:10;;;;;;;;;;;17.70;99.90;;;;;;5055328;28;974;-52
2022/01/27 14:09:40;;;;;;;;;;;17.70;99.90;;;;;;5054884;28;1271;-52
2022/01/27 14:12:08;;;;;;;;;;;17.70;99.90;;;;;;5052249;28;946;-53
2022/01/27 14:15:04;;;;;;;;;;;17.70;99.90;;;;;;5054719;28;1017;-52
2022/01/27 14:17:32;;;;;;;;;;;17.70;99.90;;;;;;5028617;28;1644;-52
2022/01/27 14:19:58;;;;;;;;;;;17.70;99.90;;;;;;5054084;28;1161;-52
2022/01/27 14:22:32;;;;;;;;;;;17.70;99.90;;;;;;5054055;28;1270;-53
2022/01/27 14:25:03;;;;;;;;;;;17.70;99.90;;;;;;5058268;28;1227;-43
2022/01/27 14:27:31;;;;;;;;;;;17.70;99.90;;;;;;5023190;28;1073;-53
2022/01/27 14:29:58;;;;;;;;;;;17.70;99.90;;;;;;5039016;28;1145;-54
2022/01/27 14:32:25;;;;;;;;;;;17.70;99.90;;;;;;5040854;28;962;-53
2022/01/27 14:34:51;;;;;;;;;;;17.70;99.90;;;;;;5057990;28;1099;-54
2022/01/27 14:37:17;;;;;;;;;;;17.70;99.90;;;;;;5058036;28;1170;-53
2022/01/27 14:39:43;;;;;;;;;;;17.70;99.90;;;;;;5058240;28;954;-54
2022/01/27 14:42:25;;;;;;;;;;;17.70;99.90;;;;;;5058413;28;939;-52
2022/01/27 14:44:53;;;;;;;;;;;17.70;99.90;;;;;;5041222;28;1910;-53
2022/01/27 14:47:20;;;;;;;;;;;17.70;99.90;;;;;;5055727;28;1030;-53
2022/01/27 14:49:50;;;;;;;;;;;17.70;99.90;;;;;;5052443;28;1302;-54
2022/01/27 14:52:26;;;;;;;;;;;17.70;99.90;;;;;;5058115;28;989;-52
2022/01/27 14:55:03;;;;;;;;;;;17.70;99.90;;;;;;5058544;28;994;-52
2022/01/27 14:57:30;;;;;;;;;;;17.70;99.90;;;;;;5057650;28;1045;-53
2022/01/27 14:59:56;;;;;;;;;;;17.70;99.90;;;;;;5057275;28;1104;-53
2022/01/27 15:02:22;;;;;;;;;;;17.70;99.90;;;;;;5040311;28;975;-54
2022/01/27 15:04:49;;;;;;;;;;;17.70;99.90;;;;;;5058441;28;1946;-54
2022/01/27 15:07:16;;;;;;;;;;;17.70;99.90;;;;;;5058259;28;950;-54
2022/01/27 15:09:42;;;;;;;;;;;17.70;99.90;;;;;;5040545;28;1238;-54
2022/01/27 15:12:13;;;;;;;;;;;17.70;99.90;;;;;;5058340;28;1032;-55
2022/01/27 15:20:11;;;;;;;;;;;17.70;99.90;;;;;;5057921;28;1028;-41
2022/01/27 15:22:38;;;;;;;;;;;17.70;99.90;;;;;;5057988;28;1969;-41
2022/01/27 15:25:06;;;;;;;;;;;17.70;99.90;;;;;;5058215;28;950;-42
2022/01/27 15:27:32;;;;;;;;;;;17.80;99.90;;;;;;5057672;28;1493;-43
2022/01/27 15:29:59;;;;;;;;;;;17.70;99.90;;;;;;5057375;28;1025;-42
2022/01/27 15:32:36;;;;;;;;;;;17.70;99.90;;;;;;5057572;28;1111;-43
2022/01/27 15:35:03;;;;;;;;;;;17.70;99.90;;;;;;5056774;28;946;-43
2022/01/27 15:37:31;;;;;;;;;;;17.70;99.90;;;;;;5056637;28;1340;-43